This is the latest recevied weather packets stored in our database for station/object K3PPP. If no packets are shown the sender has not sent any weather packets the latest 10 day(s).
| Time | Temp. | Humidity | Pressure | Rain* | Wind** | Luminosity | Snow |
|---|---|---|---|---|---|---|---|
| 1777662252 | 12.22° C | 39% | 1010.6 hPa | 0 mm | - | 195 W/m² | - |
| 1777661952 | 12.78° C | 39% | 1010.4 hPa | 0 mm | - | 197 W/m² | - |
| 1777661648 | 12.22° C | 39% | 1010.6 hPa | 0 mm | - | 201 W/m² | - |
| 1777661344 | 12.22° C | 38% | 1010.7 hPa | 0 mm | - | 108 W/m² | - |
| 1777661041 | 12.78° C | 42% | 1010.7 hPa | 0 mm | - | 190 W/m² | - |
| 1777660741 | 12.22° C | 42% | 1010.7 hPa | 0 mm | - | 218 W/m² | - |
| 1777660439 | 12.22° C | 41% | 1010.6 hPa | 0 mm | - | 201 W/m² | - |
| 1777660135 | 12.78° C | 41% | 1010.6 hPa | 0 mm | - | 230 W/m² | - |
| 1777659832 | 13.33° C | 45% | 1010.7 hPa | 0 mm | - | 324 W/m² | - |
| 1777659529 | 12.78° C | 40% | 1010.4 hPa | 0 mm | - | 376 W/m² | - |
| 1777659226 | 13.89° C | 43% | 1010.9 hPa | 0 mm | - | 320 W/m² | - |
| 1777658923 | 12.78° C | 39% | 1010.8 hPa | 0 mm | - | 570 W/m² | - |
| 1777658619 | 12.78° C | 41% | 1010.8 hPa | 0 mm | - | 248 W/m² | - |
| 1777658317 | 13.33° C | 40% | 1011 hPa | 0 mm | - | 504 W/m² | - |
| 1777658013 | 12.78° C | 46% | 1011.1 hPa | 0 mm | - | 345 W/m² | - |
| 1777657710 | 12.78° C | 46% | 1011 hPa | 0 mm | - | 440 W/m² | - |
| 1777657407 | 13.33° C | 42% | 1010.9 hPa | 0 mm | - | 856 W/m² | - |
| 1777657105 | 13.33° C | 47% | 1011.1 hPa | 0 mm | - | 820 W/m² | - |
| 1777656803 | 13.33° C | 45% | 1010.9 hPa | 0 mm | - | 661 W/m² | - |
| 1777656498 | 12.22° C | 48% | 1011.3 hPa | 0 mm | - | 883 W/m² | - |
| 1777656193 | 12.78° C | 47% | 1011.3 hPa | 0 mm | - | 256 W/m² | - |
| 1777655889 | 12.78° C | 46% | 1011.1 hPa | 0 mm | - | 608 W/m² | - |
| 1777655586 | 12.22° C | 50% | 1011.5 hPa | 0 mm | - | 834 W/m² | - |
| 1777655283 | 11.11° C | 50% | 1011.3 hPa | 0 mm | - | 414 W/m² | - |
| 1777654980 | 11.67° C | 48% | 1011.5 hPa | 0 mm | - | 365 W/m² | - |
* Rain latest hour (hover to see other rain measurements)
** Current wind speed in m/s (hover to see current wind gust speed)